sensor_id;sensor_type;location;lat;lon;timestamp;pressure;altitude;pressure_sealevel;temperature;humidity
63739;BME280;68816;45.558;10.070;2023-08-24T00:01:25;99923.44;;;31.76;48.15
63739;BME280;68816;45.558;10.070;2023-08-24T00:03:51;99926.81;;;31.59;48.33
63739;BME280;68816;45.558;10.070;2023-08-24T00:06:17;99929.22;;;31.57;48.14
63739;BME280;68816;45.558;10.070;2023-08-24T00:08:43;99929.75;;;31.43;48.96
63739;BME280;68816;45.558;10.070;2023-08-24T00:11:09;99928.78;;;31.16;49.04
63739;BME280;68816;45.558;10.070;2023-08-24T00:13:37;99927.75;;;31.24;49.70
63739;BME280;68816;45.558;10.070;2023-08-24T00:16:02;99923.84;;;31.13;49.84
63739;BME280;68816;45.558;10.070;2023-08-24T00:18:28;99927.69;;;31.21;49.17
63739;BME280;68816;45.558;10.070;2023-08-24T00:20:53;99930.03;;;31.15;49.38
63739;BME280;68816;45.558;10.070;2023-08-24T00:23:18;99934.22;;;31.21;49.05
63739;BME280;68816;45.558;10.070;2023-08-24T00:25:44;99925.88;;;31.13;49.62
63739;BME280;68816;45.558;10.070;2023-08-24T00:28:09;99933.31;;;31.17;49.56
63739;BME280;68816;45.558;10.070;2023-08-24T00:30:36;99928.84;;;31.00;50.35
63739;BME280;68816;45.558;10.070;2023-08-24T00:33:01;99938.25;;;31.01;49.55
63739;BME280;68816;45.558;10.070;2023-08-24T00:35:27;99927.59;;;30.98;49.96
63739;BME280;68816;45.558;10.070;2023-08-24T00:37:52;99931.06;;;31.07;49.97
63739;BME280;68816;45.558;10.070;2023-08-24T00:40:18;99930.69;;;31.09;49.51
63739;BME280;68816;45.558;10.070;2023-08-24T00:42:44;99927.84;;;31.09;49.61
63739;BME280;68816;45.558;10.070;2023-08-24T00:45:12;99920.84;;;31.06;49.24
63739;BME280;68816;45.558;10.070;2023-08-24T00:47:43;99929.41;;;31.06;49.08
63739;BME280;68816;45.558;10.070;2023-08-24T00:50:09;99926.25;;;30.92;49.67
63739;BME280;68816;45.558;10.070;2023-08-24T00:52:40;99926.66;;;30.94;49.74
63739;BME280;68816;45.558;10.070;2023-08-24T00:55:07;99928.03;;;31.00;49.63
63739;BME280;68816;45.558;10.070;2023-08-24T00:57:33;99927.75;;;30.86;50.10
63739;BME280;68816;45.558;10.070;2023-08-24T00:59:59;99924.13;;;30.89;49.91
63739;BME280;68816;45.558;10.070;2023-08-24T01:02:27;99921.94;;;30.82;50.01
63739;BME280;68816;45.558;10.070;2023-08-24T01:04:53;99912.69;;;30.70;50.02
63739;BME280;68816;45.558;10.070;2023-08-24T01:07:19;99911.53;;;30.55;50.49
63739;BME280;68816;45.558;10.070;2023-08-24T01:09:45;99909.69;;;30.63;50.44
63739;BME280;68816;45.558;10.070;2023-08-24T01:12:33;99915.16;;;30.71;50.22
63739;BME280;68816;45.558;10.070;2023-08-24T01:17:54;99924.78;;;30.63;50.21
63739;BME280;68816;45.558;10.070;2023-08-24T01:20:22;99924.94;;;30.70;50.49
63739;BME280;68816;45.558;10.070;2023-08-24T01:25:38;99923.81;;;30.75;50.08
63739;BME280;68816;45.558;10.070;2023-08-24T01:28:06;99921.53;;;30.65;50.32
63739;BME280;68816;45.558;10.070;2023-08-24T01:30:34;99924.63;;;30.56;51.01
63739;BME280;68816;45.558;10.070;2023-08-24T01:33:03;99923.31;;;30.69;50.08
63739;BME280;68816;45.558;10.070;2023-08-24T01:35:30;99927.53;;;30.59;50.59
63739;BME280;68816;45.558;10.070;2023-08-24T01:37:56;99922.31;;;30.62;50.37
63739;BME280;68816;45.558;10.070;2023-08-24T01:40:35;99920.81;;;30.68;50.61
63739;BME280;68816;45.558;10.070;2023-08-24T01:43:03;99919.47;;;30.81;49.91
63739;BME280;68816;45.558;10.070;2023-08-24T01:45:32;99918.69;;;30.65;49.90
63739;BME280;68816;45.558;10.070;2023-08-24T01:48:00;99927.22;;;30.45;50.47
63739;BME280;68816;45.558;10.070;2023-08-24T01:50:28;99919.44;;;30.62;49.89
63739;BME280;68816;45.558;10.070;2023-08-24T01:52:54;99914.75;;;30.53;50.15
63739;BME280;68816;45.558;10.070;2023-08-24T01:55:20;99918.97;;;30.59;49.71
63739;BME280;68816;45.558;10.070;2023-08-24T01:57:46;99909.63;;;30.43;50.33
63739;BME280;68816;45.558;10.070;2023-08-24T02:00:12;99909.06;;;30.53;50.38
63739;BME280;68816;45.558;10.070;2023-08-24T02:02:37;99912.38;;;30.55;50.18
63739;BME280;68816;45.558;10.070;2023-08-24T02:05:03;99907.13;;;30.57;50.18
63739;BME280;68816;45.558;10.070;2023-08-24T02:07:29;99905.00;;;30.54;50.18
63739;BME280;68816;45.558;10.070;2023-08-24T02:09:55;99907.41;;;30.52;50.38
63739;BME280;68816;45.558;10.070;2023-08-24T02:12:20;99899.97;;;30.48;50.37
63739;BME280;68816;45.558;10.070;2023-08-24T02:14:46;99900.44;;;30.34;50.88
63739;BME280;68816;45.558;10.070;2023-08-24T02:17:11;99902.84;;;30.32;50.63
63739;BME280;68816;45.558;10.070;2023-08-24T02:19:37;99910.75;;;30.39;50.67
63739;BME280;68816;45.558;10.070;2023-08-24T02:22:02;99909.75;;;30.31;50.97
63739;BME280;68816;45.558;10.070;2023-08-24T02:24:28;99906.75;;;30.43;50.79
63739;BME280;68816;45.558;10.070;2023-08-24T02:26:53;99906.75;;;30.43;50.75
63739;BME280;68816;45.558;10.070;2023-08-24T02:29:18;99907.13;;;30.42;50.47
63739;BME280;68816;45.558;10.070;2023-08-24T02:31:44;99905.69;;;30.32;51.17
63739;BME280;68816;45.558;10.070;2023-08-24T02:34:09;99899.97;;;30.32;51.18
63739;BME280;68816;45.558;10.070;2023-08-24T02:36:35;99900.44;;;30.34;50.98
63739;BME280;68816;45.558;10.070;2023-08-24T02:39:00;99899.09;;;30.28;51.27
63739;BME280;68816;45.558;10.070;2023-08-24T02:41:26;99897.25;;;30.20;51.26
63739;BME280;68816;45.558;10.070;2023-08-24T02:43:52;99900.56;;;30.22;51.00
63739;BME280;68816;45.558;10.070;2023-08-24T02:46:17;99899.94;;;30.13;50.98
63739;BME280;68816;45.558;10.070;2023-08-24T02:48:44;99894.03;;;30.06;51.42
63739;BME280;68816;45.558;10.070;2023-08-24T02:51:10;99899.97;;;29.97;52.01
63739;BME280;68816;45.558;10.070;2023-08-24T02:53:36;99899.50;;;30.11;51.42
63739;BME280;68816;45.558;10.070;2023-08-24T02:56:02;99901.50;;;29.95;52.15
63739;BME280;68816;45.558;10.070;2023-08-24T02:58:28;99897.00;;;29.94;52.29
63739;BME280;68816;45.558;10.070;2023-08-24T03:00:53;99896.81;;;29.87;51.91
63739;BME280;68816;45.558;10.070;2023-08-24T03:03:19;99894.88;;;29.75;52.81
63739;BME280;68816;45.558;10.070;2023-08-24T03:05:55;99881.56;;;29.63;52.96
63739;BME280;68816;45.558;10.070;2023-08-24T03:08:21;99884.22;;;29.88;52.48
63739;BME280;68816;45.558;10.070;2023-08-24T03:10:46;99878.88;;;29.86;52.35
63739;BME280;68816;45.558;10.070;2023-08-24T03:13:13;99888.44;;;29.94;52.33
63739;BME280;68816;45.558;10.070;2023-08-24T03:15:39;99894.25;;;29.82;52.99
63739;BME280;68816;45.558;10.070;2023-08-24T03:18:04;99893.56;;;29.88;52.20
63739;BME280;68816;45.558;10.070;2023-08-24T03:20:30;99903.09;;;29.92;52.15
63739;BME280;68816;45.558;10.070;2023-08-24T03:22:55;99903.59;;;29.66;52.94
63739;BME280;68816;45.558;10.070;2023-08-24T03:25:21;99901.66;;;29.55;53.35
63739;BME280;68816;45.558;10.070;2023-08-24T03:27:46;99904.78;;;29.65;52.86
63739;BME280;68816;45.558;10.070;2023-08-24T03:30:12;99904.50;;;29.70;52.77
63739;BME280;68816;45.558;10.070;2023-08-24T03:32:40;99907.94;;;29.76;52.60
63739;BME280;68816;45.558;10.070;2023-08-24T03:35:05;99904.25;;;29.60;53.00
63739;BME280;68816;45.558;10.070;2023-08-24T03:37:32;99900.88;;;29.70;52.80
63739;BME280;68816;45.558;10.070;2023-08-24T03:39:57;99904.44;;;29.83;52.16
63739;BME280;68816;45.558;10.070;2023-08-24T03:42:23;99901.56;;;29.83;52.21
63739;BME280;68816;45.558;10.070;2023-08-24T03:44:49;99906.38;;;29.78;52.57
63739;BME280;68816;45.558;10.070;2023-08-24T03:47:14;99910.31;;;29.74;52.33
63739;BME280;68816;45.558;10.070;2023-08-24T03:49:43;99905.72;;;29.54;52.67
63739;BME280;68816;45.558;10.070;2023-08-24T03:52:08;99909.38;;;29.54;53.07
63739;BME280;68816;45.558;10.070;2023-08-24T03:54:34;99913.34;;;29.65;52.76
63739;BME280;68816;45.558;10.070;2023-08-24T03:56:59;99906.72;;;29.77;51.88
63739;BME280;68816;45.558;10.070;2023-08-24T03:59:24;99908.59;;;29.69;52.89
63739;BME280;68816;45.558;10.070;2023-08-24T04:01:50;99907.84;;;29.41;53.23
63739;BME280;68816;45.558;10.070;2023-08-24T04:04:15;99912.69;;;29.41;53.38
63739;BME280;68816;45.558;10.070;2023-08-24T04:06:41;99913.91;;;29.55;52.89
63739;BME280;68816;45.558;10.070;2023-08-24T04:09:06;99913.53;;;29.57;52.27
63739;BME280;68816;45.558;10.070;2023-08-24T04:11:32;99912.91;;;29.63;52.41
63739;BME280;68816;45.558;10.070;2023-08-24T04:13:57;99919.41;;;29.48;52.73
63739;BME280;68816;45.558;10.070;2023-08-24T04:16:22;99914.41;;;29.29;53.48
63739;BME280;68816;45.558;10.070;2023-08-24T04:18:48;99918.41;;;29.41;52.84
63739;BME280;68816;45.558;10.070;2023-08-24T04:21:13;99914.72;;;29.40;53.06
63739;BME280;68816;45.558;10.070;2023-08-24T04:23:39;99921.97;;;29.53;52.54
63739;BME280;68816;45.558;10.070;2023-08-24T04:26:11;99923.38;;;29.59;52.27
63739;BME280;68816;45.558;10.070;2023-08-24T04:28:36;99922.94;;;29.57;52.61
63739;BME280;68816;45.558;10.070;2023-08-24T04:31:02;99920.34;;;29.52;52.61
63739;BME280;68816;45.558;10.070;2023-08-24T04:33:28;99926.59;;;29.58;52.50
63739;BME280;68816;45.558;10.070;2023-08-24T04:35:53;99926.56;;;29.42;52.87
63739;BME280;68816;45.558;10.070;2023-08-24T04:38:19;99920.22;;;29.49;52.67
63739;BME280;68816;45.558;10.070;2023-08-24T04:40:50;99929.81;;;29.41;52.76
63739;BME280;68816;45.558;10.070;2023-08-24T04:43:20;99926.00;;;29.36;52.80
63739;BME280;68816;45.558;10.070;2023-08-24T04:45:50;99932.53;;;29.37;53.18
63739;BME280;68816;45.558;10.070;2023-08-24T04:48:22;99922.13;;;29.29;53.41
63739;BME280;68816;45.558;10.070;2023-08-24T04:50:49;99932.09;;;29.35;53.33
63739;BME280;68816;45.558;10.070;2023-08-24T04:53:16;99931.44;;;29.42;53.38
63739;BME280;68816;45.558;10.070;2023-08-24T04:55:42;99939.28;;;29.45;53.16
63739;BME280;68816;45.558;10.070;2023-08-24T04:58:08;99933.84;;;29.39;53.17
63739;BME280;68816;45.558;10.070;2023-08-24T05:00:38;99938.00;;;29.30;53.22
63739;BME280;68816;45.558;10.070;2023-08-24T05:03:07;99944.16;;;29.32;53.07
63739;BME280;68816;45.558;10.070;2023-08-24T05:05:33;99942.66;;;29.34;53.12
63739;BME280;68816;45.558;10.070;2023-08-24T05:08:00;99951.75;;;29.40;52.55
63739;BME280;68816;45.558;10.070;2023-08-24T05:10:30;99953.16;;;29.62;53.02
63739;BME280;68816;45.558;10.070;2023-08-24T05:12:55;99952.63;;;29.72;53.01
63739;BME280;68816;45.558;10.070;2023-08-24T05:15:21;99954.91;;;29.66;53.47
63739;BME280;68816;45.558;10.070;2023-08-24T05:17:47;99951.34;;;29.69;53.75
63739;BME280;68816;45.558;10.070;2023-08-24T05:20:12;99951.16;;;29.78;52.96
63739;BME280;68816;45.558;10.070;2023-08-24T05:22:38;99958.31;;;29.72;52.53
63739;BME280;68816;45.558;10.070;2023-08-24T05:25:04;99960.38;;;29.87;52.24
63739;BME280;68816;45.558;10.070;2023-08-24T05:27:30;99966.09;;;29.87;51.68
63739;BME280;68816;45.558;10.070;2023-08-24T05:29:56;99964.22;;;29.79;51.92
63739;BME280;68816;45.558;10.070;2023-08-24T05:32:22;99962.47;;;29.74;52.25
63739;BME280;68816;45.558;10.070;2023-08-24T05:34:47;99963.03;;;29.80;51.89
63739;BME280;68816;45.558;10.070;2023-08-24T05:37:13;99961.09;;;29.84;51.43
63739;BME280;68816;45.558;10.070;2023-08-24T05:39:38;99958.72;;;29.86;51.35
63739;BME280;68816;45.558;10.070;2023-08-24T05:42:05;99958.53;;;29.95;51.19
63739;BME280;68816;45.558;10.070;2023-08-24T05:44:30;99970.91;;;29.99;51.66
63739;BME280;68816;45.558;10.070;2023-08-24T05:46:56;99966.94;;;30.03;51.50
63739;BME280;68816;45.558;10.070;2023-08-24T05:49:21;99971.44;;;30.04;51.68
63739;BME280;68816;45.558;10.070;2023-08-24T05:51:50;99970.78;;;29.95;50.97
63739;BME280;68816;45.558;10.070;2023-08-24T05:54:15;99981.38;;;30.10;50.71
63739;BME280;68816;45.558;10.070;2023-08-24T05:56:44;99985.44;;;30.09;51.95
63739;BME280;68816;45.558;10.070;2023-08-24T05:59:09;99990.84;;;30.14;51.74
63739;BME280;68816;45.558;10.070;2023-08-24T06:01:35;99988.34;;;30.13;51.63
63739;BME280;68816;45.558;10.070;2023-08-24T06:04:05;99984.94;;;30.23;51.28
63739;BME280;68816;45.558;10.070;2023-08-24T06:06:30;99979.53;;;30.34;51.01
63739;BME280;68816;45.558;10.070;2023-08-24T06:08:56;99974.34;;;30.39;50.73
63739;BME280;68816;45.558;10.070;2023-08-24T06:11:22;99974.78;;;30.41;49.97
63739;BME280;68816;45.558;10.070;2023-08-24T06:13:48;99978.03;;;30.55;49.95
63739;BME280;68816;45.558;10.070;2023-08-24T06:16:13;99971.13;;;30.56;49.23
63739;BME280;68816;45.558;10.070;2023-08-24T06:18:39;99983.63;;;30.68;49.17
63739;BME280;68816;45.558;10.070;2023-08-24T06:21:04;99979.06;;;30.82;49.91
63739;BME280;68816;45.558;10.070;2023-08-24T06:23:30;99975.91;;;30.87;49.03
63739;BME280;68816;45.558;10.070;2023-08-24T06:25:55;99976.88;;;30.95;49.25
63739;BME280;68816;45.558;10.070;2023-08-24T06:28:21;99977.66;;;30.92;48.91
63739;BME280;68816;45.558;10.070;2023-08-24T06:30:46;99975.50;;;31.05;48.94
63739;BME280;68816;45.558;10.070;2023-08-24T06:33:13;99982.13;;;31.09;49.03
63739;BME280;68816;45.558;10.070;2023-08-24T06:35:38;99978.81;;;31.07;48.99
63739;BME280;68816;45.558;10.070;2023-08-24T06:38:04;99975.94;;;31.07;49.43
63739;BME280;68816;45.558;10.070;2023-08-24T06:40:30;99982.34;;;31.19;49.61
63739;BME280;68816;45.558;10.070;2023-08-24T06:42:56;99978.19;;;31.17;48.36
63739;BME280;68816;45.558;10.070;2023-08-24T06:45:22;99975.44;;;31.20;47.55
63739;BME280;68816;45.558;10.070;2023-08-24T06:47:48;99977.84;;;31.37;47.06
63739;BME280;68816;45.558;10.070;2023-08-24T06:50:14;99980.53;;;31.50;47.06
63739;BME280;68816;45.558;10.070;2023-08-24T06:52:40;99979.00;;;31.56;47.37
63739;BME280;68816;45.558;10.070;2023-08-24T06:55:08;99974.72;;;31.65;47.11
63739;BME280;68816;45.558;10.070;2023-08-24T06:57:34;99976.13;;;31.75;45.59
63739;BME280;68816;45.558;10.070;2023-08-24T06:59:59;99976.63;;;31.80;46.02
63739;BME280;68816;45.558;10.070;2023-08-24T07:02:25;99972.75;;;31.92;45.77
63739;BME280;68816;45.558;10.070;2023-08-24T07:04:50;99970.13;;;32.03;45.37
63739;BME280;68816;45.558;10.070;2023-08-24T07:07:16;99973.81;;;32.03;44.83
63739;BME280;68816;45.558;10.070;2023-08-24T07:09:41;99977.25;;;32.12;44.54
63739;BME280;68816;45.558;10.070;2023-08-24T07:12:07;99974.84;;;32.14;44.85
63739;BME280;68816;45.558;10.070;2023-08-24T07:14:35;99980.41;;;32.07;44.82
63739;BME280;68816;45.558;10.070;2023-08-24T07:17:01;99981.00;;;32.16;45.02
63739;BME280;68816;45.558;10.070;2023-08-24T07:19:26;99977.44;;;32.23;45.20
63739;BME280;68816;45.558;10.070;2023-08-24T07:21:52;99974.41;;;32.39;45.15
63739;BME280;68816;45.558;10.070;2023-08-24T07:24:17;99968.88;;;32.49;44.70
63739;BME280;68816;45.558;10.070;2023-08-24T07:26:46;99984.72;;;32.43;44.15
63739;BME280;68816;45.558;10.070;2023-08-24T07:29:12;99970.91;;;32.49;44.22
63739;BME280;68816;45.558;10.070;2023-08-24T07:31:38;99974.19;;;32.51;44.10
63739;BME280;68816;45.558;10.070;2023-08-24T07:34:03;99976.94;;;32.67;43.96
63739;BME280;68816;45.558;10.070;2023-08-24T07:36:30;99977.00;;;32.74;43.82
63739;BME280;68816;45.558;10.070;2023-08-24T07:38:56;99973.00;;;32.78;43.84
63739;BME280;68816;45.558;10.070;2023-08-24T07:41:21;99972.38;;;32.92;43.17
63739;BME280;68816;45.558;10.070;2023-08-24T07:43:47;99976.66;;;33.05;42.74
63739;BME280;68816;45.558;10.070;2023-08-24T07:46:13;99962.03;;;33.14;42.29
63739;BME280;68816;45.558;10.070;2023-08-24T07:48:38;99968.28;;;33.19;42.07
63739;BME280;68816;45.558;10.070;2023-08-24T07:51:04;99971.97;;;33.20;41.07
63739;BME280;68816;45.558;10.070;2023-08-24T07:53:29;99969.41;;;33.15;41.48
63739;BME280;68816;45.558;10.070;2023-08-24T07:55:55;99970.63;;;33.14;41.21
63739;BME280;68816;45.558;10.070;2023-08-24T07:58:23;99970.63;;;33.14;41.39
63739;BME280;68816;45.558;10.070;2023-08-24T08:00:52;99970.34;;;33.22;41.40
63739;BME280;68816;45.558;10.070;2023-08-24T08:03:20;99975.84;;;33.38;41.07
63739;BME280;68816;45.558;10.070;2023-08-24T08:05:46;99972.22;;;33.41;41.39
63739;BME280;68816;45.558;10.070;2023-08-24T08:08:15;99970.78;;;33.58;40.90
63739;BME280;68816;45.558;10.070;2023-08-24T08:10:41;99968.81;;;33.65;40.27
63739;BME280;68816;45.558;10.070;2023-08-24T08:13:07;99966.31;;;33.60;39.39
63739;BME280;68816;45.558;10.070;2023-08-24T08:15:33;99963.97;;;33.69;38.54
63739;BME280;68816;45.558;10.070;2023-08-24T08:17:58;99968.38;;;33.63;38.07
63739;BME280;68816;45.558;10.070;2023-08-24T08:20:24;99970.03;;;33.64;38.19
63739;BME280;68816;45.558;10.070;2023-08-24T08:22:50;99966.84;;;33.73;37.57
63739;BME280;68816;45.558;10.070;2023-08-24T08:25:15;99965.75;;;33.85;36.97
63739;BME280;68816;45.558;10.070;2023-08-24T08:27:43;99961.28;;;33.87;36.76
63739;BME280;68816;45.558;10.070;2023-08-24T08:30:09;99954.03;;;34.04;37.33
63739;BME280;68816;45.558;10.070;2023-08-24T08:32:35;99961.47;;;34.08;37.49
63739;BME280;68816;45.558;10.070;2023-08-24T08:35:01;99961.28;;;33.91;37.54
63739;BME280;68816;45.558;10.070;2023-08-24T08:37:27;99961.44;;;34.05;36.61
63739;BME280;68816;45.558;10.070;2023-08-24T08:39:52;99964.56;;;34.30;37.19
63739;BME280;68816;45.558;10.070;2023-08-24T08:42:18;99965.38;;;34.30;37.00
63739;BME280;68816;45.558;10.070;2023-08-24T08:44:45;99964.09;;;34.24;36.92
63739;BME280;68816;45.558;10.070;2023-08-24T08:47:11;99968.25;;;34.30;36.31
63739;BME280;68816;45.558;10.070;2023-08-24T08:49:39;99977.34;;;34.39;36.72
63739;BME280;68816;45.558;10.070;2023-08-24T08:52:05;99962.53;;;34.37;35.49
63739;BME280;68816;45.558;10.070;2023-08-24T08:54:31;99962.50;;;34.30;35.58
63739;BME280;68816;45.558;10.070;2023-08-24T08:56:59;99962.66;;;34.51;35.43
63739;BME280;68816;45.558;10.070;2023-08-24T08:59:27;99953.72;;;34.67;36.22
63739;BME280;68816;45.558;10.070;2023-08-24T09:02:00;99959.16;;;34.76;35.85
63739;BME280;68816;45.558;10.070;2023-08-24T09:04:31;99956.81;;;34.99;35.93
63739;BME280;68816;45.558;10.070;2023-08-24T09:06:56;99957.53;;;34.78;35.39
63739;BME280;68816;45.558;10.070;2023-08-24T09:09:22;99957.13;;;34.80;35.12
63739;BME280;68816;45.558;10.070;2023-08-24T09:11:51;99948.13;;;34.85;34.70
63739;BME280;68816;45.558;10.070;2023-08-24T09:14:16;99951.38;;;34.80;34.55
63739;BME280;68816;45.558;10.070;2023-08-24T09:16:42;99956.34;;;34.90;34.23
63739;BME280;68816;45.558;10.070;2023-08-24T09:19:11;99945.69;;;34.90;33.40
63739;BME280;68816;45.558;10.070;2023-08-24T09:21:40;99950.72;;;35.11;33.61
63739;BME280;68816;45.558;10.070;2023-08-24T09:24:08;99944.25;;;35.28;34.04
63739;BME280;68816;45.558;10.070;2023-08-24T09:26:35;99943.44;;;35.28;33.05
63739;BME280;68816;45.558;10.070;2023-08-24T09:29:11;99941.81;;;35.37;33.14
63739;BME280;68816;45.558;10.070;2023-08-24T09:31:38;99947.03;;;35.14;34.54
63739;BME280;68816;45.558;10.070;2023-08-24T09:34:05;99950.47;;;35.41;33.97
63739;BME280;68816;45.558;10.070;2023-08-24T09:36:34;99942.69;;;35.56;33.51
63739;BME280;68816;45.558;10.070;2023-08-24T09:39:00;99946.34;;;35.49;33.86
63739;BME280;68816;45.558;10.070;2023-08-24T09:44:05;99941.03;;;35.55;33.18
63739;BME280;68816;45.558;10.070;2023-08-24T09:46:31;99930.72;;;35.39;33.46
63739;BME280;68816;45.558;10.070;2023-08-24T09:48:56;99929.13;;;35.53;33.41
63739;BME280;68816;45.558;10.070;2023-08-24T09:51:26;99927.94;;;35.78;33.19
63739;BME280;68816;45.558;10.070;2023-08-24T09:53:52;99923.00;;;35.68;32.30
63739;BME280;68816;45.558;10.070;2023-08-24T09:56:24;99921.78;;;35.69;31.92
63739;BME280;68816;45.558;10.070;2023-08-24T09:58:51;99918.84;;;35.66;31.35
63739;BME280;68816;45.558;10.070;2023-08-24T10:01:19;99919.72;;;35.84;32.37
63739;BME280;68816;45.558;10.070;2023-08-24T10:03:46;99922.59;;;35.84;33.30
63739;BME280;68816;45.558;10.070;2023-08-24T10:06:19;99923.84;;;35.94;32.43
63739;BME280;68816;45.558;10.070;2023-08-24T10:08:55;99918.09;;;36.04;31.27
63739;BME280;68816;45.558;10.070;2023-08-24T10:11:26;99917.25;;;35.82;31.95
63739;BME280;68816;45.558;10.070;2023-08-24T10:14:00;99918.06;;;36.11;31.45
63739;BME280;68816;45.558;10.070;2023-08-24T10:16:29;99913.16;;;35.98;32.09
63739;BME280;68816;45.558;10.070;2023-08-24T10:18:55;99910.31;;;36.15;30.75
63739;BME280;68816;45.558;10.070;2023-08-24T10:21:23;99913.19;;;36.19;32.50
63739;BME280;68816;45.558;10.070;2023-08-24T10:23:51;99911.91;;;36.13;31.83
63739;BME280;68816;45.558;10.070;2023-08-24T10:26:18;99902.06;;;36.03;32.56
63739;BME280;68816;45.558;10.070;2023-08-24T10:28:46;99906.56;;;36.36;31.27
63739;BME280;68816;45.558;10.070;2023-08-24T10:31:12;99904.06;;;36.56;31.52
63739;BME280;68816;45.558;10.070;2023-08-24T10:33:38;99898.31;;;36.49;31.03
63739;BME280;68816;45.558;10.070;2023-08-24T10:36:05;99893.78;;;36.41;31.06
63739;BME280;68816;45.558;10.070;2023-08-24T10:38:34;99893.38;;;36.64;30.60
63739;BME280;68816;45.558;10.070;2023-08-24T10:41:04;99896.63;;;36.73;29.62
63739;BME280;68816;45.558;10.070;2023-08-24T10:43:34;99891.59;;;36.98;30.31
63739;BME280;68816;45.558;10.070;2023-08-24T10:46:01;99885.50;;;36.78;30.81
63739;BME280;68816;45.558;10.070;2023-08-24T10:53:44;99878.81;;;37.02;30.98
63739;BME280;68816;45.558;10.070;2023-08-24T10:56:11;99882.06;;;37.04;30.88
63739;BME280;68816;45.558;10.070;2023-08-24T10:58:37;99881.41;;;36.72;32.08
63739;BME280;68816;45.558;10.070;2023-08-24T11:01:03;99877.63;;;36.89;31.90
63739;BME280;68816;45.558;10.070;2023-08-24T11:03:32;99868.47;;;37.09;30.87
63739;BME280;68816;45.558;10.070;2023-08-24T11:05:58;99865.91;;;37.32;30.78
63739;BME280;68816;45.558;10.070;2023-08-24T11:08:44;99872.22;;;37.02;30.95
63739;BME280;68816;45.558;10.070;2023-08-24T11:11:20;99867.66;;;37.12;30.81
63739;BME280;68816;45.558;10.070;2023-08-24T11:14:17;99859.72;;;37.30;30.18
63739;BME280;68816;45.558;10.070;2023-08-24T11:16:48;99865.47;;;37.92;30.23
63739;BME280;68816;45.558;10.070;2023-08-24T11:19:15;99859.56;;;38.10;28.83
63739;BME280;68816;45.558;10.070;2023-08-24T11:21:43;99864.41;;;37.72;29.44
63739;BME280;68816;45.558;10.070;2023-08-24T11:24:13;99868.22;;;37.58;29.60
63739;BME280;68816;45.558;10.070;2023-08-24T11:26:44;99856.06;;;37.85;29.24
63739;BME280;68816;45.558;10.070;2023-08-24T11:29:10;99850.59;;;37.97;28.88
63739;BME280;68816;45.558;10.070;2023-08-24T11:31:37;99851.72;;;38.10;29.37
63739;BME280;68816;45.558;10.070;2023-08-24T11:34:03;99852.25;;;38.39;27.93
63739;BME280;68816;45.558;10.070;2023-08-24T11:36:40;99846.41;;;38.46;27.76
63739;BME280;68816;45.558;10.070;2023-08-24T11:39:06;99851.59;;;38.62;27.51
63739;BME280;68816;45.558;10.070;2023-08-24T11:41:32;99846.28;;;38.16;27.38
63739;BME280;68816;45.558;10.070;2023-08-24T11:44:00;99849.63;;;38.14;27.94
63739;BME280;68816;45.558;10.070;2023-08-24T11:46:29;99842.31;;;38.03;28.03
63739;BME280;68816;45.558;10.070;2023-08-24T11:48:57;99847.88;;;38.24;28.06
63739;BME280;68816;45.558;10.070;2023-08-24T11:51:23;99842.31;;;38.40;27.46
63739;BME280;68816;45.558;10.070;2023-08-24T11:53:49;99839.91;;;38.73;27.60
63739;BME280;68816;45.558;10.070;2023-08-24T11:56:14;99832.16;;;38.66;27.03
63739;BME280;68816;45.558;10.070;2023-08-24T11:58:42;99833.34;;;38.69;27.47
63739;BME280;68816;45.558;10.070;2023-08-24T12:01:09;99835.63;;;38.50;27.53
63739;BME280;68816;45.558;10.070;2023-08-24T12:03:37;99820.94;;;38.72;26.97
63739;BME280;68816;45.558;10.070;2023-08-24T12:06:10;99824.63;;;38.38;27.24
63739;BME280;68816;45.558;10.070;2023-08-24T12:08:54;99825.69;;;38.85;27.43
63739;BME280;68816;45.558;10.070;2023-08-24T12:11:21;99826.13;;;39.14;27.02
63739;BME280;68816;45.558;10.070;2023-08-24T12:13:51;99828.66;;;39.12;26.63
63739;BME280;68816;45.558;10.070;2023-08-24T12:16:18;99818.09;;;38.98;26.56
63739;BME280;68816;45.558;10.070;2023-08-24T12:18:55;99811.88;;;39.30;26.25
63739;BME280;68816;45.558;10.070;2023-08-24T12:21:22;99819.66;;;39.07;26.44
63739;BME280;68816;45.558;10.070;2023-08-24T12:24:00;99814.75;;;39.30;25.89
63739;BME280;68816;45.558;10.070;2023-08-24T12:26:27;99814.47;;;39.21;26.08
63739;BME280;68816;45.558;10.070;2023-08-24T12:28:54;99809.47;;;39.25;25.88
63739;BME280;68816;45.558;10.070;2023-08-24T12:31:20;99807.63;;;38.78;26.16
63739;BME280;68816;45.558;10.070;2023-08-24T12:34:06;99794.41;;;38.77;26.16
63739;BME280;68816;45.558;10.070;2023-08-24T12:36:35;99797.72;;;38.79;26.38
63739;BME280;68816;45.558;10.070;2023-08-24T12:39:02;99800.94;;;38.50;26.63
63739;BME280;68816;45.558;10.070;2023-08-24T12:41:29;99798.94;;;38.47;26.62
63739;BME280;68816;45.558;10.070;2023-08-24T12:43:55;99796.41;;;38.83;26.08
63739;BME280;68816;45.558;10.070;2023-08-24T12:46:20;99795.41;;;38.97;25.89
63739;BME280;68816;45.558;10.070;2023-08-24T12:48:46;99797.94;;;39.22;25.40
63739;BME280;68816;45.558;10.070;2023-08-24T12:51:11;99796.63;;;39.53;25.02
63739;BME280;68816;45.558;10.070;2023-08-24T12:53:37;99791.91;;;39.63;24.38
63739;BME280;68816;45.558;10.070;2023-08-24T12:56:03;99781.38;;;39.99;24.99
63739;BME280;68816;45.558;10.070;2023-08-24T12:58:28;99779.94;;;40.07;24.99
63739;BME280;68816;45.558;10.070;2023-08-24T13:00:54;99784.47;;;40.32;24.08
63739;BME280;68816;45.558;10.070;2023-08-24T13:03:19;99783.19;;;40.13;24.54